Time;durP1;ratioP1;P1;durP2;ratioP2;P2;SDS_P1;SDS_P2;PMS_P1;PMS_P2;Temp;Humidity;BMP_temperature;BMP_pressure;BME280_temperature;BME280_humidity;BME280_pressure;Samples;Min_cycle;Max_cycle;Signal;HPM_P1;HPM_P2
2022/08/06 00:01:34;;;;;;;5.28;1.80;;;;;;;;;;5008932;28;20065;-74
2022/08/06 00:04:00;;;;;;;2.67;1.75;;;;;;;;;;5010848;28;20038;-73
2022/08/06 00:06:26;;;;;;;3.13;1.67;;;;;;;;;;5009363;28;20061;-73
2022/08/06 00:08:52;;;;;;;6.65;1.88;;;;;;;;;;5007797;28;20117;-73
2022/08/06 00:11:18;;;;;;;4.55;2.00;;;;;;;;;;5009186;28;20137;-73
2022/08/06 00:13:44;;;;;;;4.25;2.08;;;;;;;;;;5007617;28;20252;-74
2022/08/06 00:16:10;;;;;;;7.38;1.73;;;;;;;;;;5007474;28;20491;-74
2022/08/06 00:18:36;;;;;;;4.60;1.73;;;;;;;;;;5007579;28;20046;-72
2022/08/06 00:21:02;;;;;;;5.43;1.85;;;;;;;;;;5005406;28;20042;-72
2022/08/06 00:23:28;;;;;;;5.45;1.80;;;;;;;;;;5006939;28;20037;-75
2022/08/06 00:25:54;;;;;;;7.13;1.80;;;;;;;;;;5006559;28;20044;-74
2022/08/06 00:28:22;;;;;;;4.78;2.20;;;;;;;;;;5011232;28;20560;-72
2022/08/06 00:30:48;;;;;;;5.80;2.00;;;;;;;;;;5010403;28;20496;-70
2022/08/06 00:33:14;;;;;;;4.05;2.22;;;;;;;;;;5007655;28;20072;-73
2022/08/06 00:35:40;;;;;;;8.93;2.33;;;;;;;;;;5007665;28;20089;-76
2022/08/06 00:38:06;;;;;;;5.53;2.20;;;;;;;;;;5007317;28;20053;-73
2022/08/06 00:40:32;;;;;;;10.38;2.78;;;;;;;;;;5006073;28;20102;-73
2022/08/06 00:42:59;;;;;;;4.72;2.30;;;;;;;;;;5007238;28;20042;-71
2022/08/06 00:45:25;;;;;;;7.18;2.88;;;;;;;;;;5013321;28;20053;-72
2022/08/06 00:47:54;;;;;;;6.35;2.80;;;;;;;;;;5014360;28;20505;-71
2022/08/06 00:50:20;;;;;;;4.80;2.38;;;;;;;;;;5006871;28;20103;-73
2022/08/06 00:52:46;;;;;;;6.85;2.70;;;;;;;;;;5006654;28;20133;-72
2022/08/06 00:55:12;;;;;;;9.15;2.40;;;;;;;;;;5006469;28;20144;-73
2022/08/06 00:57:39;;;;;;;6.15;2.55;;;;;;;;;;5007176;28;20085;-76
2022/08/06 01:00:07;;;;;;;6.93;2.60;;;;;;;;;;5009903;28;20046;-73
2022/08/06 01:02:34;;;;;;;6.38;2.58;;;;;;;;;;5017618;28;20479;-72
2022/08/06 01:05:00;;;;;;;5.28;2.45;;;;;;;;;;5004453;28;20045;-73
2022/08/06 01:07:26;;;;;;;11.30;2.85;;;;;;;;;;5005013;28;20103;-73
2022/08/06 01:09:52;;;;;;;7.43;2.42;;;;;;;;;;5005865;28;20128;-73
2022/08/06 01:12:18;;;;;;;8.23;2.53;;;;;;;;;;5006900;28;20056;-74
2022/08/06 01:14:44;;;;;;;4.72;2.50;;;;;;;;;;5006902;28;20049;-76
2022/08/06 01:17:26;;;;;;;10.52;2.75;;;;;;;;;;5007533;28;20056;-77
2022/08/06 01:20:16;;;;;;;3.67;2.22;;;;;;;;;;5007021;28;20050;-75
2022/08/06 01:23:00;;;;;;;5.50;2.70;;;;;;;;;;5004849;28;20056;-76
2022/08/06 01:25:44;;;;;;;;;;;;;;;;;;5003567;28;20060;-72
2022/08/06 01:28:14;;;;;;;3.47;2.45;;;;;;;;;;4995848;28;20290;-76
2022/08/06 01:30:52;;;;;;;4.93;2.40;;;;;;;;;;5007564;28;20060;-72
2022/08/06 01:33:30;;;;;;;4.28;2.22;;;;;;;;;;5007661;28;20096;-75
2022/08/06 01:35:59;;;;;;;6.15;2.85;;;;;;;;;;5006792;28;20061;-74
2022/08/06 01:38:35;;;;;;;4.82;2.25;;;;;;;;;;5007991;28;20389;-73
2022/08/06 01:41:05;;;;;;;9.00;3.08;;;;;;;;;;5007816;28;20482;-73
2022/08/06 01:43:32;;;;;;;3.97;2.10;;;;;;;;;;5009470;28;20041;-77
2022/08/06 01:46:00;;;;;;;5.28;2.40;;;;;;;;;;5007430;28;20074;-79
2022/08/06 01:48:28;;;;;;;6.18;2.25;;;;;;;;;;5010761;28;20132;-79
2022/08/06 01:50:57;;;;;;;4.47;2.40;;;;;;;;;;5008458;28;20442;-73
2022/08/06 01:53:29;;;;;;;7.47;2.22;;;;;;;;;;5016807;28;20056;-74
2022/08/06 01:56:00;;;;;;;6.50;2.53;;;;;;;;;;5014765;28;20045;-76
2022/08/06 01:58:33;;;;;;;4.90;2.30;;;;;;;;;;5016469;28;20042;-75
2022/08/06 02:01:02;;;;;;;4.05;2.30;;;;;;;;;;5016929;28;20088;-75
2022/08/06 02:03:51;;;;;;;4.07;2.47;;;;;;;;;;5007815;28;20052;-75
2022/08/06 02:06:28;;;;;;;6.90;2.38;;;;;;;;;;5013933;28;20057;-77
2022/08/06 02:08:55;;;;;;;7.63;2.30;;;;;;;;;;5013412;28;20438;-74
2022/08/06 02:11:21;;;;;;;7.00;2.08;;;;;;;;;;5014781;28;20077;-78
2022/08/06 02:13:50;;;;;;;6.47;2.50;;;;;;;;;;5010460;28;20085;-76
2022/08/06 02:16:17;;;;;;;3.88;2.28;;;;;;;;;;5010895;28;20050;-73
2022/08/06 02:18:45;;;;;;;3.15;2.15;;;;;;;;;;5011679;28;20081;-76
2022/08/06 02:21:20;;;;;;;3.17;2.22;;;;;;;;;;5011409;28;20054;-74
2022/08/06 02:23:48;;;;;;;5.22;2.20;;;;;;;;;;5012881;28;20054;-76
2022/08/06 02:26:16;;;;;;;2.45;1.77;;;;;;;;;;4999095;28;20103;-74
2022/08/06 02:28:43;;;;;;;3.17;2.30;;;;;;;;;;5011634;28;20477;-77
2022/08/06 02:31:09;;;;;;;4.22;2.00;;;;;;;;;;5011883;28;20488;-75
2022/08/06 02:33:36;;;;;;;5.10;2.33;;;;;;;;;;5012372;28;20065;-77
2022/08/06 02:36:08;;;;;;;3.15;1.95;;;;;;;;;;5012513;28;20082;-79
2022/08/06 02:39:02;;;;;;;6.40;1.90;;;;;;;;;;5014264;28;20105;-79
2022/08/06 02:41:49;;;;;;;5.03;1.95;;;;;;;;;;5013273;28;20041;-78
2022/08/06 02:44:23;;;;;;;3.90;1.85;;;;;;;;;;5013687;28;20121;-76
2022/08/06 02:46:58;;;;;;;3.65;2.00;;;;;;;;;;5016852;28;20037;-75
2022/08/06 02:49:26;;;;;;;3.55;2.03;;;;;;;;;;5019607;28;20041;-76
2022/08/06 02:52:12;;;;;;;4.00;1.98;;;;;;;;;;5017589;28;20052;-77
2022/08/06 02:54:42;;;;;;;4.03;1.55;;;;;;;;;;5015693;28;20850;-73
2022/08/06 02:57:13;;;;;;;3.38;1.77;;;;;;;;;;5010461;28;20046;-73
2022/08/06 02:59:47;;;;;;;7.45;2.10;;;;;;;;;;5009704;28;20454;-72
2022/08/06 03:02:14;;;;;;;4.53;1.88;;;;;;;;;;5011091;28;20858;-73
2022/08/06 03:04:44;;;;;;;2.42;1.73;;;;;;;;;;5008617;28;20057;-71
2022/08/06 03:07:12;;;;;;;4.18;1.65;;;;;;;;;;5008439;28;20357;-72
2022/08/06 03:09:41;;;;;;;3.30;1.92;;;;;;;;;;5008484;28;20052;-73
2022/08/06 03:12:08;;;;;;;6.43;2.20;;;;;;;;;;5008899;28;20410;-72
2022/08/06 03:14:37;;;;;;;2.25;2.00;;;;;;;;;;4996960;28;20173;-72
2022/08/06 03:17:04;;;;;;;4.35;2.20;;;;;;;;;;5008248;28;20404;-72
2022/08/06 03:19:31;;;;;;;5.63;2.10;;;;;;;;;;5016138;28;20403;-73
2022/08/06 03:21:58;;;;;;;3.83;2.05;;;;;;;;;;5008553;28;20057;-74
2022/08/06 03:24:26;;;;;;;4.05;2.13;;;;;;;;;;5008227;28;20581;-73
2022/08/06 03:26:57;;;;;;;3.92;2.05;;;;;;;;;;5009308;28;20084;-72
2022/08/06 03:29:25;;;;;;;5.35;2.05;;;;;;;;;;5007305;28;20045;-73
2022/08/06 03:31:51;;;;;;;4.28;1.90;;;;;;;;;;5009346;28;20049;-77
2022/08/06 03:34:18;;;;;;;4.50;2.03;;;;;;;;;;5008994;28;20049;-77
2022/08/06 03:36:45;;;;;;;6.35;2.03;;;;;;;;;;5009118;28;20129;-73
2022/08/06 03:39:12;;;;;;;3.70;2.10;;;;;;;;;;5008687;28;20416;-78
2022/08/06 03:41:40;;;;;;;4.53;1.90;;;;;;;;;;5008811;28;20503;-75
2022/08/06 03:44:07;;;;;;;5.43;2.08;;;;;;;;;;5008643;28;20050;-75
2022/08/06 03:46:51;;;;;;;4.82;2.08;;;;;;;;;;5005656;28;20054;-75
2022/08/06 03:49:28;;;;;;;5.15;2.08;;;;;;;;;;5009112;28;20054;-77
2022/08/06 03:51:58;;;;;;;10.00;2.15;;;;;;;;;;5009242;28;20042;-77
2022/08/06 03:54:49;;;;;;;6.40;2.10;;;;;;;;;;5020299;28;20049;-81
2022/08/06 03:57:24;;;;;;;3.22;2.08;;;;;;;;;;5016127;28;20128;-78
2022/08/06 03:59:53;;;;;;;4.03;1.88;;;;;;;;;;5017155;28;20061;-77
2022/08/06 04:02:20;;;;;;;4.57;1.90;;;;;;;;;;5011213;28;20108;-78
2022/08/06 04:04:46;;;;;;;4.70;1.83;;;;;;;;;;5013325;28;20522;-77
2022/08/06 04:07:16;;;;;;;4.97;2.00;;;;;;;;;;5009735;28;20046;-72
2022/08/06 04:09:44;;;;;;;3.42;2.20;;;;;;;;;;5008741;28;20076;-75
2022/08/06 04:12:10;;;;;;;6.07;1.90;;;;;;;;;;5025209;28;20096;-74
2022/08/06 04:14:36;;;;;;;3.83;1.77;;;;;;;;;;5008953;28;20167;-73
2022/08/06 04:17:04;;;;;;;5.15;1.92;;;;;;;;;;5006995;28;20038;-73
2022/08/06 04:19:31;;;;;;;5.22;1.80;;;;;;;;;;5007745;28;20053;-74
2022/08/06 04:21:57;;;;;;;3.33;2.05;;;;;;;;;;5007447;28;20069;-73
2022/08/06 04:24:24;;;;;;;4.78;1.90;;;;;;;;;;5009097;28;20439;-74
2022/08/06 04:26:53;;;;;;;5.05;1.98;;;;;;;;;;5011160;28;20046;-73
2022/08/06 04:29:21;;;;;;;5.45;2.08;;;;;;;;;;4996387;28;20053;-74
2022/08/06 04:31:50;;;;;;;3.97;2.10;;;;;;;;;;5008336;28;20053;-73
2022/08/06 04:34:27;;;;;;;4.20;1.80;;;;;;;;;;5007797;28;20049;-74
2022/08/06 04:36:54;;;;;;;4.25;2.08;;;;;;;;;;5006434;28;20058;-71
2022/08/06 04:39:21;;;;;;;3.85;1.92;;;;;;;;;;5005984;28;20046;-71
2022/08/06 04:41:48;;;;;;;6.43;2.13;;;;;;;;;;5005578;28;20103;-74
2022/08/06 04:44:14;;;;;;;3.42;1.95;;;;;;;;;;5014764;28;20038;-73
2022/08/06 04:46:41;;;;;;;3.70;1.80;;;;;;;;;;5007281;28;20041;-71
2022/08/06 04:49:07;;;;;;;3.95;1.80;;;;;;;;;;5007477;28;20041;-73
2022/08/06 04:51:34;;;;;;;4.50;1.75;;;;;;;;;;5006663;28;20042;-72
2022/08/06 04:54:05;;;;;;;4.43;1.83;;;;;;;;;;5006737;28;20046;-73
2022/08/06 04:56:31;;;;;;;3.60;1.95;;;;;;;;;;5006442;28;20050;-72
2022/08/06 04:58:57;;;;;;;3.90;2.05;;;;;;;;;;5005898;28;20091;-73
2022/08/06 05:01:23;;;;;;;3.38;1.92;;;;;;;;;;5008548;28;20042;-73
2022/08/06 05:03:48;;;;;;;5.53;2.20;;;;;;;;;;5004986;28;20069;-71
2022/08/06 05:06:23;;;;;;;5.82;2.33;;;;;;;;;;5006470;28;20045;-75
2022/08/06 05:08:54;;;;;;;4.78;1.58;;;;;;;;;;5007995;28;20134;-74
2022/08/06 05:11:34;;;;;;;4.82;1.90;;;;;;;;;;5009585;28;20061;-73
2022/08/06 05:14:07;;;;;;;4.50;2.05;;;;;;;;;;5010496;28;20068;-72
2022/08/06 05:16:37;;;;;;;4.18;2.15;;;;;;;;;;5010712;28;20144;-74
2022/08/06 05:19:09;;;;;;;4.45;2.13;;;;;;;;;;5011181;28;20448;-74
2022/08/06 05:21:38;;;;;;;6.03;2.10;;;;;;;;;;5009106;28;20060;-72
2022/08/06 05:24:04;;;;;;;3.95;1.83;;;;;;;;;;5008345;28;20085;-75
2022/08/06 05:26:30;;;;;;;6.97;2.22;;;;;;;;;;5009074;28;20041;-73
2022/08/06 05:28:56;;;;;;;4.10;2.20;;;;;;;;;;5012889;28;20057;-73
2022/08/06 05:31:36;;;;;;;5.97;2.30;;;;;;;;;;5012539;28;20467;-74
2022/08/06 05:34:03;;;;;;;6.68;2.05;;;;;;;;;;5012548;28;20129;-74
2022/08/06 05:36:29;;;;;;;4.38;2.08;;;;;;;;;;5012668;28;20120;-72
2022/08/06 05:38:56;;;;;;;4.25;1.77;;;;;;;;;;5014974;28;20414;-73
2022/08/06 05:41:22;;;;;;;4.72;2.08;;;;;;;;;;5014200;28;20501;-73
2022/08/06 05:43:48;;;;;;;4.22;1.95;;;;;;;;;;5014173;28;20041;-74
2022/08/06 05:46:21;;;;;;;5.18;2.00;;;;;;;;;;5012231;28;20053;-74
2022/08/06 05:49:05;;;;;;;5.43;1.80;;;;;;;;;;5011997;28;20049;-73
2022/08/06 05:51:49;;;;;;;8.65;2.28;;;;;;;;;;5019441;28;20067;-73
2022/08/06 05:54:31;;;;;;;;;;;;;;;;;;5017078;28;20069;-73
2022/08/06 05:57:15;;;;;;;3.45;2.05;;;;;;;;;;5007759;28;19928;-74
2022/08/06 05:59:48;;;;;;;6.63;2.10;;;;;;;;;;5012819;28;20064;-74
2022/08/06 06:02:15;;;;;;;5.85;2.40;;;;;;;;;;5012792;28;20475;-76
2022/08/06 06:04:42;;;;;;;6.00;2.53;;;;;;;;;;5015775;28;20073;-73
2022/08/06 06:07:09;;;;;;;5.60;2.78;;;;;;;;;;5012035;28;20068;-73
2022/08/06 06:09:36;;;;;;;5.95;2.75;;;;;;;;;;5013122;28;20040;-72
2022/08/06 06:12:02;;;;;;;6.82;3.05;;;;;;;;;;5011885;28;20045;-74
2022/08/06 06:14:38;;;;;;;5.65;2.35;;;;;;;;;;5010307;28;20046;-72
2022/08/06 06:17:16;;;;;;;8.35;2.88;;;;;;;;;;5012607;28;20759;-74
2022/08/06 06:19:57;;;;;;;6.60;2.60;;;;;;;;;;5010525;28;20073;-75
2022/08/06 06:22:24;;;;;;;6.43;2.45;;;;;;;;;;5012777;28;20045;-74
2022/08/06 06:24:57;;;;;;;7.13;2.42;;;;;;;;;;5012850;28;20119;-73
2022/08/06 06:27:49;;;;;;;4.07;2.25;;;;;;;;;;5012530;28;20043;-74
2022/08/06 06:30:22;;;;;;;5.45;1.98;;;;;;;;;;5013878;28;20064;-70
2022/08/06 06:33:05;;;;;;;3.83;2.05;;;;;;;;;;5012835;28;20069;-73
2022/08/06 06:35:33;;;;;;;3.85;2.40;;;;;;;;;;5008943;28;20057;-75
2022/08/06 06:38:02;;;;;;;7.72;2.15;;;;;;;;;;5014972;28;20076;-73
2022/08/06 06:40:34;;;;;;;6.25;2.20;;;;;;;;;;5008096;28;20463;-73
2022/08/06 06:43:08;;;;;;;6.53;2.40;;;;;;;;;;5019664;28;20049;-75
2022/08/06 06:45:44;;;;;;;6.22;1.95;;;;;;;;;;5010822;28;20049;-75
2022/08/06 06:48:15;;;;;;;4.03;2.08;;;;;;;;;;5012015;28;20046;-75
2022/08/06 06:50:45;;;;;;;7.18;2.20;;;;;;;;;;5012305;28;20221;-72
2022/08/06 06:53:12;;;;;;;8.32;2.05;;;;;;;;;;5012102;28;20038;-74
2022/08/06 06:55:45;;;;;;;6.28;2.20;;;;;;;;;;5009194;28;20053;-74
2022/08/06 06:58:31;;;;;;;6.68;2.50;;;;;;;;;;5011246;28;20049;-74
2022/08/06 07:00:58;;;;;;;3.72;1.80;;;;;;;;;;5017312;28;20525;-73
2022/08/06 07:03:28;;;;;;;5.50;2.30;;;;;;;;;;5010186;28;20577;-75
2022/08/06 07:05:55;;;;;;;4.45;2.17;;;;;;;;;;5009670;28;20046;-74
2022/08/06 07:08:23;;;;;;;6.20;2.17;;;;;;;;;;5011579;28;20042;-72
2022/08/06 07:10:50;;;;;;;3.33;2.00;;;;;;;;;;5010114;28;20049;-73
2022/08/06 07:13:19;;;;;;;7.80;1.98;;;;;;;;;;5013925;28;20251;-74
2022/08/06 07:15:46;;;;;;;3.90;2.00;;;;;;;;;;5014187;28;20056;-76
2022/08/06 07:18:14;;;;;;;9.25;2.30;;;;;;;;;;5014212;28;20302;-76
2022/08/06 07:20:42;;;;;;;4.32;2.25;;;;;;;;;;5011063;28;20077;-74
2022/08/06 07:23:09;;;;;;;5.70;2.40;;;;;;;;;;5010593;28;20042;-76
2022/08/06 07:25:46;;;;;;;4.82;2.20;;;;;;;;;;5010198;28;20037;-74
2022/08/06 07:28:14;;;;;;;6.15;2.40;;;;;;;;;;5008391;28;20054;-74
2022/08/06 07:30:41;;;;;;;5.35;2.13;;;;;;;;;;4998856;28;20046;-75
2022/08/06 07:33:09;;;;;;;4.18;2.20;;;;;;;;;;5014857;28;20052;-76
2022/08/06 07:35:40;;;;;;;7.85;2.30;;;;;;;;;;5017118;28;20054;-74
2022/08/06 07:38:08;;;;;;;5.63;2.20;;;;;;;;;;5011208;28;20046;-73
2022/08/06 07:40:39;;;;;;;3.17;2.05;;;;;;;;;;5009289;28;20068;-74
2022/08/06 07:43:16;;;;;;;3.83;2.00;;;;;;;;;;5008715;28;20075;-73
2022/08/06 07:45:42;;;;;;;5.20;2.05;;;;;;;;;;5011641;28;20042;-75
2022/08/06 07:48:12;;;;;;;3.40;2.08;;;;;;;;;;5009328;28;20046;-74
2022/08/06 07:50:39;;;;;;;6.70;2.20;;;;;;;;;;5014482;28;20050;-74
2022/08/06 07:53:06;;;;;;;5.72;2.20;;;;;;;;;;5013312;28;20057;-74
2022/08/06 07:55:33;;;;;;;4.82;2.50;;;;;;;;;;5007365;28;20057;-76
2022/08/06 07:58:01;;;;;;;4.95;2.15;;;;;;;;;;5009587;28;20053;-74
2022/08/06 08:00:27;;;;;;;3.05;1.90;;;;;;;;;;5004274;28;20038;-74
2022/08/06 08:08:24;;;;;;;4.15;2.42;;;;;;;;;;5012979;28;20046;-75
2022/08/06 08:10:53;;;;;;;5.63;2.08;;;;;;;;;;5012708;28;20065;-74
2022/08/06 08:13:19;;;;;;;4.22;2.30;;;;;;;;;;5011302;28;20054;-75
2022/08/06 08:15:47;;;;;;;6.53;2.33;;;;;;;;;;5009542;28;20046;-75
2022/08/06 08:18:12;;;;;;;4.75;1.90;;;;;;;;;;5012110;28;20061;-76
2022/08/06 08:20:41;;;;;;;10.90;2.40;;;;;;;;;;5012538;28;20065;-75
2022/08/06 08:23:11;;;;;;;7.43;2.00;;;;;;;;;;5010467;28;20129;-76
2022/08/06 08:25:37;;;;;;;5.30;2.33;;;;;;;;;;5013663;28;20065;-77
2022/08/06 08:28:04;;;;;;;3.70;2.00;;;;;;;;;;5007470;28;20053;-76
2022/08/06 08:30:30;;;;;;;6.45;2.20;;;;;;;;;;5009398;28;20504;-75
2022/08/06 08:32:56;;;;;;;6.85;2.40;;;;;;;;;;5014178;28;20049;-79
2022/08/06 08:35:22;;;;;;;6.75;2.10;;;;;;;;;;5014649;28;20042;-79
2022/08/06 08:37:48;;;;;;;4.13;2.25;;;;;;;;;;5012850;28;20471;-77
2022/08/06 08:40:14;;;;;;;6.47;2.20;;;;;;;;;;5011115;28;20121;-77
2022/08/06 08:42:47;;;;;;;3.78;1.92;;;;;;;;;;5010444;28;20038;-77
2022/08/06 08:45:13;;;;;;;;;;;;;;;;;;5016495;28;20567;-77
2022/08/06 08:47:45;;;;;;;4.63;1.80;;;;;;;;;;5013695;28;19960;-77
2022/08/06 08:50:11;;;;;;;4.97;2.20;;;;;;;;;;5012752;28;20106;-78
2022/08/06 08:52:42;;;;;;;6.18;2.90;;;;;;;;;;5012302;28;20046;-75
2022/08/06 08:55:12;;;;;;;5.20;2.00;;;;;;;;;;5012747;28;20056;-76
2022/08/06 08:57:38;;;;;;;4.47;2.10;;;;;;;;;;5014052;28;20046;-77
2022/08/06 09:00:07;;;;;;;4.03;2.13;;;;;;;;;;5018530;28;20500;-80
2022/08/06 09:02:33;;;;;;;3.50;1.95;;;;;;;;;;5019485;28;20034;-77
2022/08/06 09:05:00;;;;;;;6.10;2.28;;;;;;;;;;5024898;28;20101;-79
2022/08/06 09:07:28;;;;;;;3.28;2.10;;;;;;;;;;5024721;28;20047;-78
2022/08/06 09:09:55;;;;;;;5.63;1.95;;;;;;;;;;5027416;28;20057;-80
2022/08/06 09:12:21;;;;;;;4.85;2.15;;;;;;;;;;5023551;28;20037;-75
2022/08/06 09:14:47;;;;;;;6.55;1.80;;;;;;;;;;5011066;28;20133;-71
2022/08/06 09:17:13;;;;;;;3.97;2.05;;;;;;;;;;5012139;28;20057;-73
2022/08/06 09:19:40;;;;;;;2.95;1.90;;;;;;;;;;5009479;28;20144;-74
2022/08/06 09:22:07;;;;;;;3.88;1.70;;;;;;;;;;5005464;28;20508;-74
2022/08/06 09:24:33;;;;;;;4.93;1.83;;;;;;;;;;5006065;28;20117;-73
2022/08/06 09:27:04;;;;;;;3.80;1.90;;;;;;;;;;5005085;28;20040;-72
2022/08/06 09:29:31;;;;;;;7.38;2.20;;;;;;;;;;5003189;28;20046;-74
2022/08/06 09:31:57;;;;;;;9.55;2.45;;;;;;;;;;5010009;28;20439;-79
2022/08/06 09:34:32;;;;;;;4.75;2.22;;;;;;;;;;5015978;28;20072;-76
2022/08/06 09:36:58;;;;;;;2.92;1.88;;;;;;;;;;5018067;28;20053;-75
2022/08/06 09:39:40;;;;;;;6.90;2.10;;;;;;;;;;5018731;28;20115;-77
2022/08/06 09:42:07;;;;;;;5.88;2.53;;;;;;;;;;5018255;28;20411;-77
2022/08/06 09:44:34;;;;;;;5.45;2.60;;;;;;;;;;5015228;28;20050;-78
2022/08/06 09:47:00;;;;;;;9.45;2.35;;;;;;;;;;5016604;28;20042;-78
2022/08/06 09:49:27;;;;;;;4.00;2.38;;;;;;;;;;5014355;28;20122;-82
2022/08/06 09:52:17;;;;;;;8.25;2.55;;;;;;;;;;5010994;28;20117;-79
2022/08/06 09:54:44;;;;;;;6.32;2.63;;;;;;;;;;5002780;28;20045;-75
2022/08/06 09:57:10;;;;;;;8.95;2.65;;;;;;;;;;5005884;28;20057;-72
2022/08/06 09:59:47;;;;;;;7.88;2.67;;;;;;;;;;5008949;28;20042;-75
2022/08/06 10:02:15;;;;;;;8.07;2.50;;;;;;;;;;5006097;28;20046;-76
2022/08/06 10:04:41;;;;;;;6.93;2.20;;;;;;;;;;5007900;28;20056;-75
2022/08/06 10:07:07;;;;;;;6.15;2.30;;;;;;;;;;5004835;28;20125;-74
2022/08/06 10:09:34;;;;;;;7.20;2.45;;;;;;;;;;5002288;28;20411;-76
2022/08/06 10:12:00;;;;;;;8.88;2.38;;;;;;;;;;5007497;28;20476;-74
2022/08/06 10:14:31;;;;;;;6.10;2.10;;;;;;;;;;5008632;28;20049;-77
2022/08/06 10:17:13;;;;;;;4.97;1.88;;;;;;;;;;5009059;28;20103;-73
2022/08/06 10:19:44;;;;;;;4.88;2.20;;;;;;;;;;5003928;28;20121;-77
2022/08/06 10:22:12;;;;;;;4.47;2.03;;;;;;;;;;5003866;28;20518;-75
2022/08/06 10:24:42;;;;;;;5.15;2.28;;;;;;;;;;5009182;28;20133;-76
2022/08/06 10:27:11;;;;;;;5.03;2.28;;;;;;;;;;5007615;28;20077;-74
2022/08/06 10:29:44;;;;;;;5.55;2.38;;;;;;;;;;5008806;28;20135;-76
2022/08/06 10:32:16;;;;;;;5.90;2.25;;;;;;;;;;5018827;28;20111;-76
2022/08/06 10:34:46;;;;;;;4.30;2.10;;;;;;;;;;5011712;28;20060;-71
2022/08/06 10:37:13;;;;;;;4.43;2.70;;;;;;;;;;5007360;28;20064;-73
2022/08/06 10:39:45;;;;;;;4.38;2.63;;;;;;;;;;5007491;28;20041;-73
2022/08/06 10:42:12;;;;;;;5.93;2.80;;;;;;;;;;5013512;28;20049;-75
2022/08/06 10:44:39;;;;;;;6.13;2.20;;;;;;;;;;5002186;28;20042;-76
2022/08/06 10:47:05;;;;;;;5.10;1.70;;;;;;;;;;5001214;28;20172;-74
2022/08/06 10:49:34;;;;;;;3.85;2.10;;;;;;;;;;4999969;28;20044;-75
2022/08/06 10:52:00;;;;;;;5.45;1.95;;;;;;;;;;5003243;28;20049;-78
2022/08/06 10:54:26;;;;;;;7.18;2.10;;;;;;;;;;5001887;28;20112;-75
2022/08/06 10:56:57;;;;;;;2.63;1.73;;;;;;;;;;5001318;28;20064;-76
2022/08/06 10:59:23;;;;;;;4.47;1.90;;;;;;;;;;4998444;28;20049;-77
2022/08/06 11:02:06;;;;;;;2.58;1.73;;;;;;;;;;5000916;28;20505;-74
2022/08/06 11:04:54;;;;;;;4.22;1.90;;;;;;;;;;5001604;28;20430;-77
2022/08/06 11:07:55;;;;;;;4.35;1.90;;;;;;;;;;4997830;28;20054;-74
2022/08/06 11:10:39;;;;;;;8.57;2.58;;;;;;;;;;5006283;28;20053;-72
2022/08/06 11:13:07;;;;;;;;;;;;;;;;;;5000714;28;20065;-73
2022/08/06 11:15:35;;;;;;;5.57;1.80;;;;;;;;;;5000477;28;19926;-74
2022/08/06 11:18:09;;;;;;;4.13;2.00;;;;;;;;;;4998911;28;20106;-75
2022/08/06 11:20:46;;;;;;;3.40;1.90;;;;;;;;;;5001082;28;20056;-77
2022/08/06 11:23:11;;;;;;;2.90;1.60;;;;;;;;;;5004754;28;20104;-79
2022/08/06 11:25:41;;;;;;;4.45;1.88;;;;;;;;;;5005016;28;20621;-75
2022/08/06 11:28:09;;;;;;;5.05;2.30;;;;;;;;;;5005369;28;20649;-76
2022/08/06 11:30:50;;;;;;;3.17;1.80;;;;;;;;;;5004473;28;20038;-78
2022/08/06 11:33:35;;;;;;;2.92;1.90;;;;;;;;;;4998822;28;20057;-73
2022/08/06 11:36:14;;;;;;;3.60;2.17;;;;;;;;;;4999875;28;20455;-80
2022/08/06 11:38:42;;;;;;;3.40;2.00;;;;;;;;;;5017121;28;20054;-78
2022/08/06 11:41:17;;;;;;;6.10;2.10;;;;;;;;;;5002149;28;20236;-76
2022/08/06 11:43:52;;;;;;;7.60;1.70;;;;;;;;;;5002402;28;20115;-76
2022/08/06 11:46:40;;;;;;;9.85;1.90;;;;;;;;;;5003252;28;20256;-76
2022/08/06 11:49:13;;;;;;;5.97;2.08;;;;;;;;;;5001227;28;20045;-78
2022/08/06 11:51:45;;;;;;;4.65;2.03;;;;;;;;;;5004273;28;20602;-78
2022/08/06 11:54:36;;;;;;;5.57;2.30;;;;;;;;;;5015053;28;20042;-77
2022/08/06 11:57:02;;;;;;;5.30;2.38;;;;;;;;;;5014210;28;20156;-80
2022/08/06 11:59:29;;;;;;;6.82;1.88;;;;;;;;;;5006289;28;20503;-79
2022/08/06 12:01:56;;;;;;;7.82;2.05;;;;;;;;;;5005467;28;20077;-80
2022/08/06 12:04:38;;;;;;;7.97;1.80;;;;;;;;;;5014554;28;20050;-77
2022/08/06 12:07:19;;;;;;;7.22;2.30;;;;;;;;;;5014965;28;20078;-83
2022/08/06 12:09:45;;;;;;;6.10;1.80;;;;;;;;;;5014352;28;20124;-78
2022/08/06 12:12:23;;;;;;;3.85;1.58;;;;;;;;;;5013587;28;20050;-80
2022/08/06 12:14:50;;;;;;;4.28;1.73;;;;;;;;;;5012540;28;20407;-82
2022/08/06 12:17:21;;;;;;;3.22;1.85;;;;;;;;;;5013886;28;20052;-78
2022/08/06 12:19:51;;;;;;;3.92;1.75;;;;;;;;;;5001564;28;20544;-76
2022/08/06 12:22:20;;;;;;;10.25;2.10;;;;;;;;;;4999800;28;20053;-72
2022/08/06 12:24:49;;;;;;;4.18;1.90;;;;;;;;;;5009188;28;20117;-79
2022/08/06 12:27:16;;;;;;;5.53;1.90;;;;;;;;;;5008846;28;20045;-75
2022/08/06 12:29:43;;;;;;;6.72;1.92;;;;;;;;;;5011898;28;20400;-83
2022/08/06 12:32:22;;;;;;;4.55;1.65;;;;;;;;;;5016405;28;20423;-79
2022/08/06 12:34:49;;;;;;;7.35;1.85;;;;;;;;;;5016652;28;20057;-78
2022/08/06 12:37:16;;;;;;;5.75;1.75;;;;;;;;;;5016725;28;20086;-78
2022/08/06 12:42:28;;;;;;;4.35;1.85;;;;;;;;;;5006605;28;20214;-77
2022/08/06 12:44:54;;;;;;;6.10;1.67;;;;;;;;;;5003353;28;20160;-75
2022/08/06 12:47:21;;;;;;;8.15;1.98;;;;;;;;;;5005125;28;20077;-79
2022/08/06 12:49:47;;;;;;;7.03;1.88;;;;;;;;;;5003986;28;20056;-77
2022/08/06 12:52:16;;;;;;;7.45;1.63;;;;;;;;;;5002309;28;20050;-78
2022/08/06 12:54:41;;;;;;;4.32;1.88;;;;;;;;;;5001280;28;20483;-77
2022/08/06 12:57:08;;;;;;;4.88;1.55;;;;;;;;;;4999648;28;20447;-76
2022/08/06 12:59:34;;;;;;;4.68;1.70;;;;;;;;;;4998811;28;20041;-78
2022/08/06 13:02:01;;;;;;;2.53;1.48;;;;;;;;;;5001061;28;20549;-76
2022/08/06 13:04:27;;;;;;;4.32;1.60;;;;;;;;;;4999599;28;20104;-78
2022/08/06 13:06:54;;;;;;;3.95;1.63;;;;;;;;;;5004400;28;20049;-78
2022/08/06 13:09:31;;;;;;;5.05;1.88;;;;;;;;;;4999374;28;20050;-78
2022/08/06 13:11:57;;;;;;;3.47;1.40;;;;;;;;;;5004464;28;20481;-77
2022/08/06 13:14:22;;;;;;;2.85;1.85;;;;;;;;;;5004033;28;20103;-77
2022/08/06 13:16:48;;;;;;;5.80;2.08;;;;;;;;;;5001259;28;20054;-77
2022/08/06 13:19:17;;;;;;;3.35;1.70;;;;;;;;;;4998273;28;20054;-78
2022/08/06 13:21:45;;;;;;;5.05;1.90;;;;;;;;;;5001324;28;20066;-77
2022/08/06 13:24:12;;;;;;;5.55;2.03;;;;;;;;;;5002227;28;20050;-77
2022/08/06 13:26:52;;;;;;;6.22;2.00;;;;;;;;;;5002100;28;20064;-77
2022/08/06 13:29:19;;;;;;;4.50;2.10;;;;;;;;;;4999247;28;20042;-76
2022/08/06 13:31:46;;;;;;;5.10;2.10;;;;;;;;;;4999137;28;20422;-80
2022/08/06 13:34:15;;;;;;;7.10;2.22;;;;;;;;;;4999400;28;20115;-76
2022/08/06 13:36:44;;;;;;;6.53;2.65;;;;;;;;;;5000441;28;20122;-77
2022/08/06 13:39:21;;;;;;;4.63;1.80;;;;;;;;;;5000693;28;20123;-76
2022/08/06 13:41:59;;;;;;;7.50;2.83;;;;;;;;;;5004426;28;20534;-76
2022/08/06 13:44:33;;;;;;;5.80;2.10;;;;;;;;;;5000554;28;20104;-75
2022/08/06 13:47:00;;;;;;;9.85;1.88;;;;;;;;;;5009476;28;20044;-80
2022/08/06 13:49:26;;;;;;;3.92;1.90;;;;;;;;;;5015755;28;20042;-74
2022/08/06 13:51:52;;;;;;;4.22;1.98;;;;;;;;;;5017196;28;20625;-77
2022/08/06 13:54:18;;;;;;;6.97;2.25;;;;;;;;;;5005973;28;20061;-77
2022/08/06 13:56:45;;;;;;;4.93;1.80;;;;;;;;;;5005845;28;20136;-77
2022/08/06 13:59:11;;;;;;;4.30;2.10;;;;;;;;;;5004724;28;21479;-74
2022/08/06 14:01:37;;;;;;;3.58;1.92;;;;;;;;;;5004319;28;20175;-77
2022/08/06 14:04:04;;;;;;;2.38;1.92;;;;;;;;;;5003470;28;20168;-76
2022/08/06 14:06:30;;;;;;;3.85;1.80;;;;;;;;;;5003812;28;20150;-77
2022/08/06 14:08:56;;;;;;;3.90;1.83;;;;;;;;;;5022569;28;20065;-80
2022/08/06 14:11:22;;;;;;;5.65;2.28;;;;;;;;;;5019602;28;20056;-78
2022/08/06 14:13:47;;;;;;;4.30;1.60;;;;;;;;;;5012347;28;20053;-78
2022/08/06 14:16:13;;;;;;;3.85;1.70;;;;;;;;;;5013251;28;20045;-80
2022/08/06 14:18:39;;;;;;;5.75;1.85;;;;;;;;;;5020758;28;20480;-82
2022/08/06 14:21:05;;;;;;;8.70;2.03;;;;;;;;;;5024223;28;20056;-79
2022/08/06 14:23:31;;;;;;;6.50;1.80;;;;;;;;;;5010904;28;20097;-78
2022/08/06 14:25:57;;;;;;;4.75;1.80;;;;;;;;;;5004604;28;20104;-77
2022/08/06 14:28:22;;;;;;;4.43;1.70;;;;;;;;;;5005025;28;20725;-76
2022/08/06 14:30:48;;;;;;;5.97;2.10;;;;;;;;;;5004092;28;20053;-76
2022/08/06 14:33:14;;;;;;;6.18;2.00;;;;;;;;;;5007010;28;20057;-76
2022/08/06 14:35:41;;;;;;;2.78;1.73;;;;;;;;;;5003554;28;20463;-75
2022/08/06 14:38:06;;;;;;;4.18;1.67;;;;;;;;;;5008792;28;20050;-75
2022/08/06 14:46:01;;;;;;;6.05;2.00;;;;;;;;;;5000800;28;20049;-75
2022/08/06 14:48:27;;;;;;;4.80;1.88;;;;;;;;;;4997559;28;20050;-74
2022/08/06 14:50:53;;;;;;;5.05;1.90;;;;;;;;;;4998071;28;20073;-74
2022/08/06 14:53:19;;;;;;;3.95;2.03;;;;;;;;;;5000935;28;20053;-79
2022/08/06 14:55:45;;;;;;;3.10;1.73;;;;;;;;;;5004944;28;20050;-77
2022/08/06 14:58:11;;;;;;;2.95;1.70;;;;;;;;;;5001981;28;20058;-75
2022/08/06 15:00:37;;;;;;;3.72;1.70;;;;;;;;;;5001813;28;20061;-76
2022/08/06 15:03:03;;;;;;;5.90;1.83;;;;;;;;;;5002075;28;20052;-78
2022/08/06 15:05:29;;;;;;;5.68;1.80;;;;;;;;;;5000939;28;20454;-77
2022/08/06 15:07:55;;;;;;;4.68;1.88;;;;;;;;;;5000918;28;20054;-75
2022/08/06 15:10:20;;;;;;;5.45;1.67;;;;;;;;;;4996881;28;20414;-72
2022/08/06 15:12:46;;;;;;;4.32;1.60;;;;;;;;;;5000922;28;20049;-73